createdAt,value
2019-04-01T00:00:11.265Z,4.16
2019-04-01T00:02:41.790Z,4.16
2019-04-01T00:05:08.407Z,4.16
2019-04-01T00:07:37.474Z,4.11
2019-04-01T00:10:05.555Z,4.07
2019-04-01T00:12:33.111Z,4.05
2019-04-01T00:14:59.587Z,3.97
2019-04-01T00:17:29.358Z,3.93
2019-04-01T00:19:58.099Z,3.91
2019-04-01T00:22:26.815Z,3.82
2019-04-01T00:24:53.333Z,3.81
2019-04-01T00:27:22.255Z,3.70
2019-04-01T00:29:48.811Z,3.61
2019-04-01T00:32:19.760Z,3.55
2019-04-01T00:34:49.285Z,3.51
2019-04-01T00:37:16.194Z,3.45
2019-04-01T00:39:42.824Z,3.40
2019-04-01T00:42:35.289Z,3.38
2019-04-01T00:45:02.027Z,3.39
2019-04-01T00:47:28.526Z,3.41
2019-04-01T00:50:09.790Z,3.36
2019-04-01T00:52:38.417Z,3.32
2019-04-01T00:55:06.812Z,3.31
2019-04-01T00:57:33.665Z,3.26
2019-04-01T01:00:00.491Z,3.24
2019-04-01T01:02:27.131Z,3.25
2019-04-01T01:04:53.617Z,3.28
2019-04-01T01:07:20.532Z,3.24
2019-04-01T01:09:47.352Z,3.20
2019-04-01T01:12:14.258Z,3.16
2019-04-01T01:14:41.302Z,3.14
2019-04-01T01:17:08.239Z,3.15
2019-04-01T01:19:34.737Z,3.12
2019-04-01T01:22:01.356Z,3.12
2019-04-01T01:24:27.909Z,3.06
2019-04-01T01:26:54.424Z,3.00
2019-04-01T01:29:20.909Z,2.97
2019-04-01T01:31:47.439Z,2.92
2019-04-01T01:34:16.244Z,2.88
2019-04-01T01:36:42.989Z,2.84
2019-04-01T01:39:09.877Z,2.83
2019-04-01T01:41:38.717Z,2.81
2019-04-01T01:44:05.265Z,2.80
2019-04-01T01:46:31.817Z,2.71
2019-04-01T01:48:58.750Z,2.69
2019-04-01T01:51:25.227Z,2.70
2019-04-01T01:53:51.900Z,2.70
2019-04-01T01:56:18.395Z,2.68
2019-04-01T01:58:44.894Z,2.58
2019-04-01T02:01:11.531Z,2.56
2019-04-01T02:03:38.054Z,2.52
2019-04-01T02:06:05.344Z,2.48
2019-04-01T02:08:32.245Z,2.47
2019-04-01T02:10:58.744Z,2.46
2019-04-01T02:14:03.492Z,2.42
2019-04-01T02:16:30.124Z,2.37
2019-04-01T02:18:56.619Z,2.31
2019-04-01T02:21:23.114Z,2.30
2019-04-01T02:23:49.579Z,2.33
2019-04-01T02:26:18.452Z,2.33
2019-04-01T02:28:44.970Z,2.33
2019-04-01T02:31:11.715Z,2.28
2019-04-01T02:33:38.259Z,2.26
2019-04-01T02:36:07.214Z,2.23
2019-04-01T02:38:33.672Z,2.19
2019-04-01T02:41:01.644Z,2.16
2019-04-01T02:43:28.099Z,2.13
2019-04-01T02:45:56.387Z,2.08
2019-04-01T02:48:25.266Z,2.05
2019-04-01T02:50:51.817Z,1.99
2019-04-01T02:53:18.291Z,1.95
2019-04-01T02:55:47.940Z,1.95
2019-04-01T02:58:16.904Z,1.95
2019-04-01T03:00:44.927Z,1.88
2019-04-01T03:03:13.949Z,1.87
2019-04-01T03:05:40.445Z,1.85
2019-04-01T03:08:06.994Z,1.85
2019-04-01T03:10:36.960Z,1.85
2019-04-01T03:13:06.996Z,1.83
2019-04-01T03:15:36.572Z,1.86
2019-04-01T03:18:06.430Z,1.82
2019-04-01T03:20:36.030Z,1.78
2019-04-01T03:23:05.553Z,1.78
2019-04-01T03:25:32.113Z,1.75
2019-04-01T03:27:58.840Z,1.75
2019-04-01T03:30:27.645Z,1.77
2019-04-01T03:32:56.908Z,1.72
2019-04-01T03:35:23.812Z,1.70
2019-04-01T03:37:50.636Z,1.65
2019-04-01T03:40:17.252Z,1.59
2019-04-01T03:42:45.885Z,1.54
2019-04-01T03:45:12.421Z,1.47
2019-04-01T03:47:38.898Z,1.43
2019-04-01T03:50:05.826Z,1.40
2019-04-01T03:52:33.985Z,1.38
2019-04-01T03:55:00.786Z,1.35
2019-04-01T03:57:27.240Z,1.33
2019-04-01T03:59:55.673Z,1.32
2019-04-01T04:02:26.792Z,1.28
2019-04-01T04:04:50.663Z,1.22
2019-04-01T04:07:17.165Z,1.23
2019-04-01T04:09:45.545Z,1.15
2019-04-01T04:12:14.785Z,1.12
2019-04-01T04:14:41.274Z,1.09
2019-04-01T04:17:07.743Z,1.00
2019-04-01T04:19:35.361Z,0.87
2019-04-01T04:22:04.735Z,0.83
2019-04-01T04:24:31.270Z,0.83
2019-04-01T04:26:57.797Z,0.82
2019-04-01T04:29:26.482Z,0.84
2019-04-01T04:31:57.132Z,0.84
2019-04-01T04:34:23.842Z,0.82
2019-04-01T04:36:50.422Z,0.77
2019-04-01T04:39:17.129Z,0.77
2019-04-01T04:41:43.672Z,0.76
2019-04-01T04:44:10.225Z,0.74
2019-04-01T04:46:36.822Z,0.65
2019-04-01T04:49:03.380Z,0.65
2019-04-01T04:51:30.681Z,0.57
2019-04-01T04:53:57.336Z,0.55
2019-04-01T04:56:25.971Z,0.50
2019-04-01T04:58:53.392Z,0.46
2019-04-01T05:01:21.629Z,0.51
2019-04-01T05:03:48.666Z,0.42
2019-04-01T05:06:15.480Z,0.34
2019-04-01T05:08:44.423Z,0.37
2019-04-01T05:11:11.031Z,0.41
2019-04-01T05:13:38.086Z,0.49
2019-04-01T05:16:05.045Z,0.55
2019-04-01T05:18:31.651Z,0.63
2019-04-01T05:21:03.113Z,0.70
2019-04-01T05:23:29.754Z,0.79
2019-04-01T05:25:56.813Z,0.86
2019-04-01T05:28:27.239Z,0.93
2019-04-01T05:31:00.959Z,1.00
2019-04-01T05:33:29.756Z,1.07
2019-04-01T05:35:56.445Z,1.13
2019-04-01T05:38:23.087Z,1.19
2019-04-01T05:40:49.633Z,1.27
2019-04-01T05:43:19.090Z,1.38
2019-04-01T05:45:45.761Z,1.46
2019-04-01T05:48:13.833Z,1.52
2019-04-01T05:50:45.106Z,1.64
2019-04-01T05:53:13.443Z,1.72
2019-04-01T05:55:40.176Z,1.85
2019-04-01T05:58:07.049Z,2.00
2019-04-01T06:00:37.909Z,2.12
2019-04-01T06:03:07.636Z,2.24
2019-04-01T06:05:38.794Z,2.30
2019-04-01T06:08:05.297Z,2.46
2019-04-01T06:10:33.167Z,2.61
2019-04-01T06:13:00.022Z,2.90
2019-04-01T06:15:26.597Z,3.13
2019-04-01T06:17:53.079Z,3.39
2019-04-01T06:20:19.870Z,3.61
2019-04-01T06:22:46.483Z,3.87
2019-04-01T06:25:13.182Z,4.05
2019-04-01T06:27:40.160Z,4.18
2019-04-01T06:30:06.999Z,4.14
2019-04-01T06:32:35.831Z,4.19
2019-04-01T06:35:03.188Z,4.14
2019-04-01T06:37:29.816Z,4.44
2019-04-01T06:39:57.142Z,4.52
2019-04-01T06:42:34.925Z,4.56
2019-04-01T06:45:03.247Z,4.60
2019-04-01T06:47:35.094Z,4.68
2019-04-01T06:50:02.569Z,4.46
2019-04-01T06:52:29.591Z,4.42
2019-04-01T06:54:56.185Z,4.58
2019-04-01T06:57:23.860Z,4.83
2019-04-01T06:59:50.387Z,4.94
2019-04-01T07:02:17.019Z,5.09
2019-04-01T07:04:44.447Z,5.29
2019-04-01T07:07:19.200Z,5.39
2019-04-01T07:09:42.263Z,5.89
2019-04-01T07:12:09.306Z,5.98
2019-04-01T07:14:36.914Z,5.93
2019-04-01T07:17:04.384Z,5.93
2019-04-01T07:19:31.524Z,6.37
2019-04-01T07:21:58.575Z,6.45
2019-04-01T07:24:26.038Z,6.84
2019-04-01T07:26:54.254Z,6.98
2019-04-01T07:29:24.047Z,6.78
2019-04-01T07:31:56.002Z,6.98
2019-04-01T07:34:26.621Z,7.27
2019-04-01T07:36:53.458Z,7.58
2019-04-01T07:39:21.842Z,7.63
2019-04-01T07:41:49.266Z,7.10
2019-04-01T07:44:17.114Z,7.60
2019-04-01T07:46:45.187Z,7.69
2019-04-01T07:49:12.429Z,7.94
2019-04-01T07:51:39.932Z,8.39
2019-04-01T07:54:07.517Z,8.62
2019-04-01T07:56:35.419Z,8.14
2019-04-01T07:59:02.908Z,8.70
2019-04-01T08:01:30.442Z,8.99
2019-04-01T08:03:58.227Z,8.66
2019-04-01T08:06:25.536Z,8.85
2019-04-01T08:08:52.659Z,9.17
2019-04-01T08:11:19.245Z,9.09
2019-04-01T08:13:45.936Z,9.61
2019-04-01T08:16:12.860Z,9.72
2019-04-01T08:18:39.724Z,10.02
2019-04-01T08:21:06.584Z,10.10
2019-04-01T08:23:33.555Z,10.06
2019-04-01T08:26:00.226Z,10.28
2019-04-01T08:28:27.108Z,10.26
2019-04-01T08:30:53.650Z,10.44
2019-04-01T08:33:35.141Z,10.44
2019-04-01T08:36:16.480Z,10.75
2019-04-01T08:38:43.210Z,10.84
2019-04-01T08:41:09.810Z,10.88
2019-04-01T08:43:38.604Z,10.86
2019-04-01T08:46:05.102Z,11.33
2019-04-01T08:48:35.699Z,11.03
2019-04-01T08:51:02.817Z,11.32
2019-04-01T08:53:31.395Z,10.58
2019-04-01T08:56:00.862Z,10.90
2019-04-01T08:58:28.871Z,11.22
2019-04-01T09:00:56.157Z,11.41
2019-04-01T09:03:22.660Z,11.45
2019-04-01T09:05:49.366Z,11.73
2019-04-01T09:08:16.119Z,11.81
2019-04-01T09:10:42.870Z,11.70
2019-04-01T09:13:09.691Z,11.18
2019-04-01T09:15:36.502Z,10.90
2019-04-01T09:18:03.162Z,11.39
2019-04-01T09:20:29.761Z,11.18
2019-04-01T09:22:59.272Z,11.55
2019-04-01T09:25:28.533Z,11.84
2019-04-01T09:27:55.620Z,11.66
2019-04-01T09:30:22.261Z,11.68
2019-04-01T09:32:49.121Z,11.96
2019-04-01T09:35:16.844Z,11.82
2019-04-01T09:37:43.377Z,12.04
2019-04-01T09:40:11.283Z,11.56
2019-04-01T09:42:44.343Z,11.60
2019-04-01T09:45:14.442Z,11.76
2019-04-01T09:47:40.947Z,11.58
2019-04-01T09:50:07.670Z,11.97
2019-04-01T09:52:34.606Z,11.88
2019-04-01T09:55:06.137Z,11.58
2019-04-01T09:57:38.028Z,12.20
2019-04-01T10:00:05.464Z,11.91
2019-04-01T10:02:32.543Z,12.29
2019-04-01T10:04:59.322Z,12.57
2019-04-01T10:07:25.983Z,12.56
2019-04-01T10:09:52.553Z,12.58
2019-04-01T10:12:19.893Z,12.94
2019-04-01T10:14:46.844Z,12.14
2019-04-01T10:17:13.367Z,12.46
2019-04-01T10:19:40.058Z,12.46
2019-04-01T10:22:06.741Z,12.83
2019-04-01T10:24:33.437Z,12.50
2019-04-01T10:27:02.597Z,12.31
2019-04-01T10:29:29.151Z,12.39
2019-04-01T10:31:55.915Z,12.37
2019-04-01T10:34:22.775Z,12.48
2019-04-01T10:36:49.277Z,13.07
2019-04-01T10:39:15.860Z,13.54
2019-04-01T10:41:42.977Z,13.48
2019-04-01T10:44:09.518Z,13.69
2019-04-01T10:46:36.266Z,13.08
2019-04-01T10:49:05.175Z,13.31
2019-04-01T10:51:33.826Z,13.42
2019-04-01T10:54:00.387Z,13.00
2019-04-01T10:56:27.420Z,13.39
2019-04-01T10:58:54.240Z,13.40
2019-04-01T11:01:21.455Z,13.53
2019-04-01T11:03:56.023Z,13.59
2019-04-01T11:06:27.359Z,13.65
2019-04-01T11:08:54.736Z,13.77
2019-04-01T11:11:21.490Z,13.39
2019-04-01T11:13:51.595Z,13.29
2019-04-01T11:16:17.186Z,12.94
2019-04-01T11:18:43.720Z,13.44
2019-04-01T11:21:10.437Z,13.66
2019-04-01T11:23:37.128Z,13.12
2019-04-01T11:26:03.912Z,13.57
2019-04-01T11:28:30.581Z,13.81
2019-04-01T11:30:57.175Z,13.16
2019-04-01T11:33:27.221Z,14.06
2019-04-01T11:35:54.417Z,13.81
2019-04-01T11:38:21.036Z,13.60
2019-04-01T11:40:47.556Z,14.38
2019-04-01T11:43:14.422Z,14.39
2019-04-01T11:45:41.144Z,14.25
2019-04-01T11:48:09.818Z,13.13
2019-04-01T11:50:36.885Z,13.42
2019-04-01T11:53:03.500Z,13.74
2019-04-01T11:55:30.429Z,14.16
2019-04-01T11:57:57.261Z,13.93
2019-04-01T12:00:26.184Z,13.97
2019-04-01T12:02:52.429Z,13.73
2019-04-01T12:05:18.955Z,14.02
2019-04-01T12:07:45.796Z,14.51
2019-04-01T12:10:13.528Z,14.02
2019-04-01T12:12:43.866Z,14.15
2019-04-01T12:15:12.326Z,14.20
2019-04-01T12:17:41.591Z,13.81
2019-04-01T12:20:09.449Z,14.02
2019-04-01T12:22:36.370Z,13.80
2019-04-01T12:25:03.369Z,14.09
2019-04-01T12:27:32.647Z,14.17
2019-04-01T12:29:59.221Z,14.11
2019-04-01T12:32:31.275Z,13.85
2019-04-01T12:34:57.933Z,14.22
2019-04-01T12:37:24.641Z,14.65
2019-04-01T12:39:51.551Z,14.61
2019-04-01T12:42:18.231Z,14.60
2019-04-01T12:44:47.648Z,14.38
2019-04-01T12:47:17.002Z,14.63
2019-04-01T12:49:50.007Z,14.17
2019-04-01T12:52:18.214Z,14.34
2019-04-01T12:54:45.578Z,13.85
2019-04-01T12:57:12.462Z,13.54
2019-04-01T12:59:39.058Z,14.27
2019-04-01T13:02:07.592Z,13.99
2019-04-01T13:04:36.205Z,14.11
2019-04-01T13:07:05.089Z,14.31
2019-04-01T13:09:32.515Z,14.50
2019-04-01T13:11:59.075Z,14.26
2019-04-01T13:14:25.881Z,13.70
2019-04-01T13:16:52.740Z,13.54
2019-04-01T13:19:19.657Z,13.51
2019-04-01T13:21:46.417Z,13.42
2019-04-01T13:24:13.066Z,13.65
2019-04-01T13:26:39.606Z,13.37
2019-04-01T13:29:06.419Z,13.18
2019-04-01T13:31:33.019Z,13.61
2019-04-01T13:34:01.564Z,13.71
2019-04-01T13:36:28.135Z,13.13
2019-04-01T13:38:54.797Z,13.25
2019-04-01T13:41:24.978Z,13.69
2019-04-01T13:43:50.176Z,13.49
2019-04-01T13:46:17.091Z,13.17
2019-04-01T13:48:56.968Z,13.11
2019-04-01T13:51:12.121Z,13.01
2019-04-01T13:53:39.079Z,13.32
2019-04-01T13:56:10.175Z,13.24
2019-04-01T13:58:37.265Z,13.00
2019-04-01T14:01:04.331Z,13.32
2019-04-01T14:03:31.408Z,13.04
2019-04-01T14:05:57.912Z,12.80
2019-04-01T14:08:24.582Z,12.93
2019-04-01T14:10:51.116Z,12.59
2019-04-01T14:13:17.655Z,12.59
2019-04-01T14:15:45.468Z,12.61
2019-04-01T14:18:12.004Z,12.35
2019-04-01T14:20:38.844Z,12.42
2019-04-01T14:23:06.503Z,12.63
2019-04-01T14:25:34.806Z,12.66
2019-04-01T14:28:01.491Z,12.46
2019-04-01T14:30:28.190Z,12.68
2019-04-01T14:32:55.786Z,12.68
2019-04-01T14:35:23.857Z,12.46
2019-04-01T14:37:50.568Z,12.22
2019-04-01T14:40:17.932Z,12.29
2019-04-01T14:42:47.179Z,12.61
2019-04-01T14:45:14.020Z,12.48
2019-04-01T14:47:56.047Z,12.59
2019-04-01T14:50:10.461Z,12.47
2019-04-01T14:52:37.067Z,12.21
2019-04-01T14:55:03.964Z,12.27
2019-04-01T14:57:31.058Z,12.20
2019-04-01T14:59:57.703Z,12.16
2019-04-01T15:02:26.312Z,12.05
2019-04-01T15:04:52.964Z,11.94
2019-04-01T15:07:19.642Z,12.13
2019-04-01T15:09:46.802Z,12.14
2019-04-01T15:12:13.519Z,12.16
2019-04-01T15:14:41.347Z,12.10
2019-04-01T15:17:08.114Z,11.81
2019-04-01T15:19:34.682Z,11.97
2019-04-01T15:22:02.199Z,11.93
2019-04-01T15:24:28.781Z,11.80
2019-04-01T15:26:55.343Z,11.64
2019-04-01T15:29:24.299Z,11.65
2019-04-01T15:31:51.116Z,11.65
2019-04-01T15:34:18.608Z,11.75
2019-04-01T15:36:46.054Z,11.74
2019-04-01T15:39:14.803Z,11.58
2019-04-01T15:41:41.782Z,11.58
2019-04-01T15:44:09.235Z,11.51
2019-04-01T15:46:36.214Z,11.53
2019-04-01T15:49:02.886Z,11.56
2019-04-01T15:51:29.474Z,11.50
2019-04-01T15:53:56.151Z,11.39
2019-04-01T15:56:22.709Z,11.34
2019-04-01T15:58:50.978Z,11.38
2019-04-01T16:01:17.926Z,11.24
2019-04-01T16:03:44.530Z,11.19
2019-04-01T16:06:11.103Z,11.26
2019-04-01T16:08:37.700Z,11.05
2019-04-01T16:11:04.368Z,11.07
2019-04-01T16:13:31.348Z,11.09
2019-04-01T16:15:58.090Z,11.02
2019-04-01T16:18:25.012Z,10.85
2019-04-01T16:20:51.587Z,10.84
2019-04-01T16:23:22.475Z,10.78
2019-04-01T16:25:49.046Z,10.70
2019-04-01T16:28:15.735Z,10.79
2019-04-01T16:30:42.411Z,10.76
2019-04-01T16:33:09.700Z,10.74
2019-04-01T16:35:36.346Z,10.64
2019-04-01T16:38:03.083Z,10.66
2019-04-01T16:40:30.117Z,10.62
2019-04-01T16:42:57.519Z,10.59
2019-04-01T16:45:24.314Z,10.50
2019-04-01T16:47:53.468Z,10.44
2019-04-01T16:50:22.227Z,10.47
2019-04-01T16:52:55.543Z,10.35
2019-04-01T16:55:28.305Z,10.23
2019-04-01T16:57:55.256Z,10.20
2019-04-01T17:00:22.094Z,10.16
2019-04-01T17:02:50.524Z,10.01
2019-04-01T17:05:21.962Z,9.98
2019-04-01T17:07:48.470Z,9.94
2019-04-01T17:10:20.138Z,9.83
2019-04-01T17:12:46.906Z,9.78
2019-04-01T17:15:13.829Z,9.73
2019-04-01T17:17:42.597Z,9.68
2019-04-01T17:20:09.555Z,9.64
2019-04-01T17:22:36.226Z,9.51
2019-04-01T17:25:03.525Z,9.43
2019-04-01T17:27:30.198Z,9.38
2019-04-01T17:29:57.058Z,9.30
2019-04-01T17:32:23.693Z,9.26
2019-04-01T17:34:54.340Z,9.17
2019-04-01T17:37:24.956Z,9.04
2019-04-01T17:39:51.865Z,8.98
2019-04-01T17:42:18.630Z,8.90
2019-04-01T17:44:45.457Z,8.84
2019-04-01T17:47:12.678Z,8.75
2019-04-01T17:49:39.800Z,8.67
2019-04-01T17:52:06.360Z,8.57
2019-04-01T17:54:40.020Z,8.46
2019-04-01T17:57:06.236Z,8.36
2019-04-01T17:59:32.876Z,8.30
2019-04-01T18:01:59.569Z,8.21
2019-04-01T18:04:26.181Z,8.12
2019-04-01T18:06:52.790Z,8.06
2019-04-01T18:09:19.257Z,8.02
2019-04-01T18:11:47.084Z,8.00
2019-04-01T18:14:13.600Z,7.91
2019-04-01T18:16:42.254Z,7.79
2019-04-01T18:19:13.538Z,7.73
2019-04-01T18:21:40.036Z,7.66
2019-04-01T18:24:07.001Z,7.55
2019-04-01T18:26:33.820Z,7.47
2019-04-01T18:29:01.550Z,7.41
2019-04-01T18:31:29.666Z,7.36
2019-04-01T18:34:02.267Z,7.37
2019-04-01T18:36:29.043Z,7.32
2019-04-01T18:38:56.123Z,7.28
2019-04-01T18:41:23.802Z,7.28
2019-04-01T18:43:53.142Z,7.31
2019-04-01T18:46:23.301Z,7.36
2019-04-01T18:48:57.943Z,7.41
2019-04-01T18:51:24.788Z,7.36
2019-04-01T18:54:16.105Z,7.35
2019-04-01T18:56:42.895Z,7.30
2019-04-01T18:59:16.763Z,7.28
2019-04-01T19:01:46.322Z,7.24
2019-04-01T19:04:13.188Z,7.22
2019-04-01T19:06:42.766Z,7.19
2019-04-01T19:09:11.795Z,7.11
2019-04-01T19:11:38.705Z,7.03
2019-04-01T19:14:05.572Z,6.69
2019-04-01T19:16:35.534Z,6.36
2019-04-01T19:19:14.633Z,6.13
2019-04-01T19:21:42.082Z,6.03
2019-04-01T19:24:09.850Z,5.93
2019-04-01T19:26:36.529Z,5.99
2019-04-01T19:29:03.419Z,6.17
2019-04-01T19:31:30.283Z,6.33
2019-04-01T19:33:57.083Z,6.42
2019-04-01T19:36:23.598Z,6.42
2019-04-01T19:38:50.257Z,6.41
2019-04-01T19:41:17.239Z,6.44
2019-04-01T19:43:45.662Z,6.44
2019-04-01T19:46:12.244Z,6.45
2019-04-01T19:48:38.896Z,6.49
2019-04-01T19:51:05.599Z,6.44
2019-04-01T19:53:32.806Z,6.28
2019-04-01T19:56:00.939Z,6.07
2019-04-01T19:58:27.463Z,5.89
2019-04-01T20:00:54.080Z,5.69
2019-04-01T20:03:25.368Z,5.58
2019-04-01T20:05:53.176Z,5.45
2019-04-01T20:08:19.700Z,5.34
2019-04-01T20:10:53.488Z,5.22
2019-04-01T20:13:20.067Z,5.01
2019-04-01T20:15:46.738Z,4.89
2019-04-01T20:18:13.377Z,4.84
2019-04-01T20:20:41.597Z,4.70
2019-04-01T20:23:08.469Z,4.67
2019-04-01T20:25:39.572Z,4.65
2019-04-01T20:28:06.154Z,4.63
2019-04-01T20:30:32.918Z,4.57
2019-04-01T20:33:17.075Z,4.47
2019-04-01T20:35:37.886Z,4.44
2019-04-01T20:38:04.482Z,4.48
2019-04-01T20:40:30.974Z,4.48
2019-04-01T20:42:57.940Z,4.45
2019-04-01T20:45:24.470Z,4.36
2019-04-01T20:47:51.635Z,4.29
2019-04-01T20:50:18.531Z,4.22
2019-04-01T20:52:45.171Z,4.29
2019-04-01T20:55:13.394Z,4.38
2019-04-01T20:57:42.762Z,4.27
2019-04-01T21:00:09.920Z,4.17
2019-04-01T21:02:37.790Z,4.07
2019-04-01T21:05:05.131Z,4.07
2019-04-01T21:07:32.088Z,4.01
2019-04-01T21:09:58.618Z,3.99
2019-04-01T21:12:25.117Z,3.93
2019-04-01T21:14:51.990Z,3.96
2019-04-01T21:17:18.565Z,3.80
2019-04-01T21:19:45.302Z,3.71
2019-04-01T21:22:11.851Z,3.62
2019-04-01T21:24:38.375Z,3.54
2019-04-01T21:27:05.361Z,3.55
2019-04-01T21:29:31.998Z,3.49
2019-04-01T21:31:58.534Z,3.44
2019-04-01T21:34:25.071Z,3.37
2019-04-01T21:36:51.995Z,3.42
2019-04-01T21:39:18.493Z,3.41
2019-04-01T21:41:45.039Z,3.45
2019-04-01T21:44:12.305Z,3.37
2019-04-01T21:46:39.121Z,3.38
2019-04-01T21:49:05.627Z,3.40
2019-04-01T21:51:33.163Z,3.36
2019-04-01T21:54:17.468Z,3.36
2019-04-01T21:56:43.988Z,3.29
2019-04-01T21:59:10.502Z,3.06
2019-04-01T22:01:37.407Z,2.95
2019-04-01T22:04:15.057Z,2.96
2019-04-01T22:06:41.865Z,2.92
2019-04-01T22:09:10.753Z,2.80
2019-04-01T22:11:37.305Z,2.80
2019-04-01T22:14:04.124Z,2.89
2019-04-01T22:16:30.643Z,2.98
2019-04-01T22:18:57.165Z,3.08
2019-04-01T22:21:23.673Z,3.08
2019-04-01T22:23:50.220Z,3.10
2019-04-01T22:26:16.793Z,3.06
2019-04-01T22:28:43.346Z,2.97
2019-04-01T22:31:10.151Z,2.88
2019-04-01T22:33:37.020Z,2.83
2019-04-01T22:36:03.596Z,2.72
2019-04-01T22:38:30.359Z,2.62
2019-04-01T22:40:56.961Z,2.69
2019-04-01T22:46:03.786Z,2.90
2019-04-01T22:48:30.280Z,2.85
2019-04-01T22:50:57.765Z,2.72
2019-04-01T22:53:24.381Z,2.74
2019-04-01T22:55:51.023Z,2.69
2019-04-01T22:58:17.636Z,2.56
2019-04-01T23:00:44.127Z,2.46
2019-04-01T23:03:11.893Z,2.43
2019-04-01T23:05:38.544Z,2.36
2019-04-01T23:08:05.457Z,2.37
2019-04-01T23:10:32.306Z,2.26
2019-04-01T23:13:00.878Z,2.24
2019-04-01T23:15:27.516Z,2.21
2019-04-01T23:17:54.035Z,2.23
2019-04-01T23:20:20.716Z,2.09
2019-04-01T23:22:47.487Z,2.02
2019-04-01T23:25:14.035Z,2.05
2019-04-01T23:27:40.941Z,2.19
2019-04-01T23:30:08.799Z,2.20
2019-04-01T23:32:35.334Z,2.16
2019-04-01T23:35:03.911Z,2.19
2019-04-01T23:37:30.577Z,2.18
2019-04-01T23:39:57.159Z,2.14
2019-04-01T23:42:23.729Z,2.01
2019-04-01T23:44:51.297Z,1.93
2019-04-01T23:47:18.876Z,1.79
2019-04-01T23:49:45.393Z,1.68
2019-04-01T23:52:11.963Z,1.56
2019-04-01T23:54:38.529Z,1.53
2019-04-01T23:57:05.150Z,1.60
2019-04-01T23:59:31.689Z,1.62
